sensor_id;sensor_type;location;lat;lon;timestamp;P1;durP1;ratioP1;P2;durP2;ratioP2
84042;SDS011;74129;52.540;13.416;2024-01-15T00:02:07;10.90;;;6.20;;
84042;SDS011;74129;52.540;13.416;2024-01-15T00:04:38;7.90;;;5.00;;
84042;SDS011;74129;52.540;13.416;2024-01-15T00:07:11;9.70;;;6.10;;
84042;SDS011;74129;52.540;13.416;2024-01-15T00:10:04;11.90;;;6.80;;
84042;SDS011;74129;52.540;13.416;2024-01-15T00:12:31;8.30;;;4.90;;
84042;SDS011;74129;52.540;13.416;2024-01-15T00:15:00;9.10;;;5.70;;
84042;SDS011;74129;52.540;13.416;2024-01-15T00:17:29;8.50;;;5.40;;
84042;SDS011;74129;52.540;13.416;2024-01-15T00:19:55;7.40;;;4.80;;
84042;SDS011;74129;52.540;13.416;2024-01-15T00:22:25;9.50;;;5.10;;
84042;SDS011;74129;52.540;13.416;2024-01-15T00:25:02;7.70;;;4.80;;
84042;SDS011;74129;52.540;13.416;2024-01-15T00:27:36;8.90;;;4.90;;
84042;SDS011;74129;52.540;13.416;2024-01-15T00:30:14;9.00;;;4.40;;
84042;SDS011;74129;52.540;13.416;2024-01-15T00:32:51;5.70;;;3.70;;
84042;SDS011;74129;52.540;13.416;2024-01-15T00:35:27;7.20;;;4.90;;
84042;SDS011;74129;52.540;13.416;2024-01-15T00:37:59;9.00;;;5.60;;
84042;SDS011;74129;52.540;13.416;2024-01-15T00:40:33;10.10;;;6.10;;
84042;SDS011;74129;52.540;13.416;2024-01-15T00:43:00;9.80;;;6.30;;
84042;SDS011;74129;52.540;13.416;2024-01-15T00:45:29;10.50;;;5.80;;
84042;SDS011;74129;52.540;13.416;2024-01-15T00:47:55;10.00;;;5.80;;
84042;SDS011;74129;52.540;13.416;2024-01-15T00:50:23;9.40;;;6.20;;
84042;SDS011;74129;52.540;13.416;2024-01-15T00:52:50;7.70;;;3.80;;
84042;SDS011;74129;52.540;13.416;2024-01-15T00:55:19;6.40;;;4.30;;
84042;SDS011;74129;52.540;13.416;2024-01-15T00:57:52;9.50;;;5.60;;
84042;SDS011;74129;52.540;13.416;2024-01-15T01:00:21;9.20;;;5.10;;
84042;SDS011;74129;52.540;13.416;2024-01-15T01:02:48;8.00;;;4.60;;
84042;SDS011;74129;52.540;13.416;2024-01-15T01:05:15;8.90;;;5.10;;
84042;SDS011;74129;52.540;13.416;2024-01-15T01:07:47;8.70;;;5.40;;
84042;SDS011;74129;52.540;13.416;2024-01-15T01:10:28;8.00;;;4.20;;
84042;SDS011;74129;52.540;13.416;2024-01-15T01:12:55;8.20;;;5.30;;
84042;SDS011;74129;52.540;13.416;2024-01-15T01:15:22;8.60;;;5.50;;
84042;SDS011;74129;52.540;13.416;2024-01-15T01:17:48;10.70;;;5.40;;
84042;SDS011;74129;52.540;13.416;2024-01-15T01:20:17;9.90;;;5.30;;
84042;SDS011;74129;52.540;13.416;2024-01-15T01:22:44;7.80;;;5.40;;
84042;SDS011;74129;52.540;13.416;2024-01-15T01:25:13;7.90;;;5.10;;
84042;SDS011;74129;52.540;13.416;2024-01-15T01:27:42;8.40;;;5.60;;
84042;SDS011;74129;52.540;13.416;2024-01-15T01:30:26;6.10;;;3.90;;
84042;SDS011;74129;52.540;13.416;2024-01-15T01:32:53;12.00;;;5.40;;
84042;SDS011;74129;52.540;13.416;2024-01-15T01:35:24;8.40;;;5.20;;
84042;SDS011;74129;52.540;13.416;2024-01-15T01:37:51;9.30;;;5.20;;
84042;SDS011;74129;52.540;13.416;2024-01-15T01:40:21;9.20;;;5.30;;
84042;SDS011;74129;52.540;13.416;2024-01-15T01:42:50;6.90;;;3.40;;
84042;SDS011;74129;52.540;13.416;2024-01-15T01:45:17;10.40;;;6.40;;
84042;SDS011;74129;52.540;13.416;2024-01-15T01:47:47;8.50;;;5.30;;
84042;SDS011;74129;52.540;13.416;2024-01-15T01:50:16;10.60;;;5.90;;
84042;SDS011;74129;52.540;13.416;2024-01-15T01:52:45;8.90;;;5.40;;
84042;SDS011;74129;52.540;13.416;2024-01-15T01:55:16;8.10;;;5.40;;
84042;SDS011;74129;52.540;13.416;2024-01-15T01:57:45;5.50;;;3.50;;
84042;SDS011;74129;52.540;13.416;2024-01-15T02:00:11;9.70;;;5.90;;
84042;SDS011;74129;52.540;13.416;2024-01-15T02:02:41;9.70;;;5.40;;
84042;SDS011;74129;52.540;13.416;2024-01-15T02:05:12;7.90;;;4.60;;
84042;SDS011;74129;52.540;13.416;2024-01-15T02:07:45;9.60;;;5.40;;
84042;SDS011;74129;52.540;13.416;2024-01-15T02:10:14;10.50;;;6.00;;
84042;SDS011;74129;52.540;13.416;2024-01-15T02:12:42;15.60;;;4.90;;
84042;SDS011;74129;52.540;13.416;2024-01-15T02:15:12;12.10;;;6.10;;
84042;SDS011;74129;52.540;13.416;2024-01-15T02:18:07;6.90;;;4.20;;
84042;SDS011;74129;52.540;13.416;2024-01-15T02:20:42;7.90;;;5.10;;
84042;SDS011;74129;52.540;13.416;2024-01-15T02:23:11;6.40;;;3.80;;
84042;SDS011;74129;52.540;13.416;2024-01-15T02:25:44;9.70;;;4.90;;
84042;SDS011;74129;52.540;13.416;2024-01-15T02:28:14;8.40;;;4.60;;
84042;SDS011;74129;52.540;13.416;2024-01-15T02:30:44;7.30;;;4.10;;
84042;SDS011;74129;52.540;13.416;2024-01-15T02:33:26;10.90;;;4.50;;
84042;SDS011;74129;52.540;13.416;2024-01-15T02:35:53;6.10;;;3.50;;
84042;SDS011;74129;52.540;13.416;2024-01-15T02:38:20;8.50;;;4.40;;
84042;SDS011;74129;52.540;13.416;2024-01-15T02:40:46;7.00;;;4.20;;
84042;SDS011;74129;52.540;13.416;2024-01-15T02:43:13;6.70;;;4.10;;
84042;SDS011;74129;52.540;13.416;2024-01-15T02:45:42;9.50;;;4.00;;
84042;SDS011;74129;52.540;13.416;2024-01-15T02:48:09;8.40;;;4.20;;
84042;SDS011;74129;52.540;13.416;2024-01-15T02:50:38;8.70;;;4.50;;
84042;SDS011;74129;52.540;13.416;2024-01-15T02:53:16;7.00;;;3.80;;
84042;SDS011;74129;52.540;13.416;2024-01-15T02:55:43;8.20;;;4.10;;
84042;SDS011;74129;52.540;13.416;2024-01-15T02:58:09;6.90;;;4.00;;
84042;SDS011;74129;52.540;13.416;2024-01-15T03:00:44;9.40;;;4.40;;
84042;SDS011;74129;52.540;13.416;2024-01-15T03:03:17;7.90;;;4.80;;
84042;SDS011;74129;52.540;13.416;2024-01-15T03:05:47;9.00;;;4.30;;
84042;SDS011;74129;52.540;13.416;2024-01-15T03:08:26;8.80;;;3.90;;
84042;SDS011;74129;52.540;13.416;2024-01-15T03:11:03;6.60;;;4.20;;
84042;SDS011;74129;52.540;13.416;2024-01-15T03:13:30;8.20;;;4.80;;
84042;SDS011;74129;52.540;13.416;2024-01-15T03:16:17;5.20;;;3.70;;
84042;SDS011;74129;52.540;13.416;2024-01-15T03:18:46;5.70;;;3.60;;
84042;SDS011;74129;52.540;13.416;2024-01-15T03:21:16;7.30;;;3.80;;
84042;SDS011;74129;52.540;13.416;2024-01-15T03:23:47;6.00;;;3.70;;
84042;SDS011;74129;52.540;13.416;2024-01-15T03:26:19;5.50;;;3.30;;
84042;SDS011;74129;52.540;13.416;2024-01-15T03:28:46;8.20;;;4.20;;
84042;SDS011;74129;52.540;13.416;2024-01-15T03:31:13;7.30;;;4.10;;
84042;SDS011;74129;52.540;13.416;2024-01-15T03:33:39;5.00;;;3.20;;
84042;SDS011;74129;52.540;13.416;2024-01-15T03:36:06;7.40;;;4.50;;
84042;SDS011;74129;52.540;13.416;2024-01-15T03:38:34;10.00;;;4.40;;
84042;SDS011;74129;52.540;13.416;2024-01-15T03:41:00;6.90;;;3.50;;
84042;SDS011;74129;52.540;13.416;2024-01-15T03:43:27;6.30;;;4.00;;
84042;SDS011;74129;52.540;13.416;2024-01-15T03:45:53;6.50;;;3.90;;
84042;SDS011;74129;52.540;13.416;2024-01-15T03:48:20;4.80;;;2.80;;
84042;SDS011;74129;52.540;13.416;2024-01-15T03:50:47;9.70;;;4.70;;
84042;SDS011;74129;52.540;13.416;2024-01-15T03:53:16;5.50;;;3.60;;
84042;SDS011;74129;52.540;13.416;2024-01-15T03:55:52;12.50;;;3.90;;
84042;SDS011;74129;52.540;13.416;2024-01-15T03:58:22;8.80;;;3.90;;
84042;SDS011;74129;52.540;13.416;2024-01-15T04:00:49;6.40;;;3.90;;
84042;SDS011;74129;52.540;13.416;2024-01-15T04:03:16;6.10;;;3.50;;
84042;SDS011;74129;52.540;13.416;2024-01-15T04:05:43;6.30;;;3.50;;
84042;SDS011;74129;52.540;13.416;2024-01-15T04:08:12;10.60;;;4.60;;
84042;SDS011;74129;52.540;13.416;2024-01-15T04:10:42;5.60;;;3.40;;
84042;SDS011;74129;52.540;13.416;2024-01-15T04:13:17;6.50;;;3.50;;
84042;SDS011;74129;52.540;13.416;2024-01-15T04:15:45;5.70;;;3.30;;
84042;SDS011;74129;52.540;13.416;2024-01-15T04:18:14;6.60;;;3.90;;
84042;SDS011;74129;52.540;13.416;2024-01-15T04:20:58;7.30;;;3.60;;
84042;SDS011;74129;52.540;13.416;2024-01-15T04:23:50;5.10;;;3.10;;
84042;SDS011;74129;52.540;13.416;2024-01-15T04:26:16;6.50;;;3.00;;
84042;SDS011;74129;52.540;13.416;2024-01-15T04:28:48;4.50;;;2.90;;
84042;SDS011;74129;52.540;13.416;2024-01-15T04:31:22;13.10;;;3.60;;
84042;SDS011;74129;52.540;13.416;2024-01-15T04:33:53;9.40;;;3.30;;
84042;SDS011;74129;52.540;13.416;2024-01-15T04:36:27;7.00;;;3.00;;
84042;SDS011;74129;52.540;13.416;2024-01-15T04:39:02;8.30;;;4.00;;
84042;SDS011;74129;52.540;13.416;2024-01-15T04:41:31;6.10;;;3.40;;
84042;SDS011;74129;52.540;13.416;2024-01-15T04:44:23;7.50;;;3.00;;
84042;SDS011;74129;52.540;13.416;2024-01-15T04:46:50;7.00;;;2.70;;
84042;SDS011;74129;52.540;13.416;2024-01-15T04:49:24;4.50;;;2.50;;
84042;SDS011;74129;52.540;13.416;2024-01-15T04:51:53;6.00;;;2.80;;
84042;SDS011;74129;52.540;13.416;2024-01-15T04:54:22;4.60;;;2.70;;
84042;SDS011;74129;52.540;13.416;2024-01-15T04:56:57;5.10;;;2.90;;
84042;SDS011;74129;52.540;13.416;2024-01-15T04:59:35;7.10;;;3.40;;
84042;SDS011;74129;52.540;13.416;2024-01-15T05:02:04;10.30;;;3.40;;
84042;SDS011;74129;52.540;13.416;2024-01-15T05:04:33;4.10;;;1.60;;
84042;SDS011;74129;52.540;13.416;2024-01-15T05:07:10;10.80;;;3.00;;
84042;SDS011;74129;52.540;13.416;2024-01-15T05:09:40;5.10;;;2.00;;
84042;SDS011;74129;52.540;13.416;2024-01-15T05:12:06;8.20;;;2.50;;
84042;SDS011;74129;52.540;13.416;2024-01-15T05:14:33;5.30;;;2.30;;
84042;SDS011;74129;52.540;13.416;2024-01-15T05:17:11;7.20;;;3.00;;
84042;SDS011;74129;52.540;13.416;2024-01-15T05:19:38;4.30;;;2.10;;
84042;SDS011;74129;52.540;13.416;2024-01-15T05:22:05;5.90;;;2.20;;
84042;SDS011;74129;52.540;13.416;2024-01-15T05:24:32;3.60;;;2.30;;
84042;SDS011;74129;52.540;13.416;2024-01-15T05:27:07;3.30;;;1.60;;
84042;SDS011;74129;52.540;13.416;2024-01-15T05:29:37;4.50;;;2.50;;
84042;SDS011;74129;52.540;13.416;2024-01-15T05:32:06;6.50;;;2.50;;
84042;SDS011;74129;52.540;13.416;2024-01-15T05:34:33;11.20;;;2.60;;
84042;SDS011;74129;52.540;13.416;2024-01-15T05:37:03;4.80;;;1.90;;
84042;SDS011;74129;52.540;13.416;2024-01-15T05:39:35;4.70;;;2.70;;
84042;SDS011;74129;52.540;13.416;2024-01-15T05:42:18;3.10;;;1.80;;
84042;SDS011;74129;52.540;13.416;2024-01-15T05:44:59;4.50;;;2.40;;
84042;SDS011;74129;52.540;13.416;2024-01-15T05:50:05;4.90;;;2.10;;
84042;SDS011;74129;52.540;13.416;2024-01-15T05:52:36;4.50;;;2.60;;
84042;SDS011;74129;52.540;13.416;2024-01-15T05:55:08;4.00;;;2.10;;
84042;SDS011;74129;52.540;13.416;2024-01-15T06:00:14;6.00;;;1.90;;
84042;SDS011;74129;52.540;13.416;2024-01-15T06:02:43;4.00;;;1.80;;
84042;SDS011;74129;52.540;13.416;2024-01-15T06:05:12;5.30;;;2.00;;
84042;SDS011;74129;52.540;13.416;2024-01-15T06:07:47;10.00;;;2.40;;
84042;SDS011;74129;52.540;13.416;2024-01-15T06:10:13;7.40;;;2.70;;
84042;SDS011;74129;52.540;13.416;2024-01-15T06:12:49;3.70;;;2.00;;
84042;SDS011;74129;52.540;13.416;2024-01-15T06:15:30;3.50;;;1.80;;
84042;SDS011;74129;52.540;13.416;2024-01-15T06:18:02;1.70;;;1.40;;
84042;SDS011;74129;52.540;13.416;2024-01-15T06:20:39;2.70;;;1.90;;
84042;SDS011;74129;52.540;13.416;2024-01-15T06:23:15;3.00;;;1.70;;
84042;SDS011;74129;52.540;13.416;2024-01-15T06:25:41;5.90;;;2.10;;
84042;SDS011;74129;52.540;13.416;2024-01-15T06:28:16;5.30;;;1.90;;
84042;SDS011;74129;52.540;13.416;2024-01-15T06:30:57;5.10;;;1.80;;
84042;SDS011;74129;52.540;13.416;2024-01-15T06:33:35;3.10;;;1.70;;
84042;SDS011;74129;52.540;13.416;2024-01-15T06:36:07;4.80;;;1.80;;
84042;SDS011;74129;52.540;13.416;2024-01-15T06:38:48;2.20;;;1.40;;
84042;SDS011;74129;52.540;13.416;2024-01-15T06:41:15;5.50;;;2.00;;
84042;SDS011;74129;52.540;13.416;2024-01-15T06:43:42;5.30;;;2.10;;
84042;SDS011;74129;52.540;13.416;2024-01-15T06:46:08;11.20;;;1.80;;
84042;SDS011;74129;52.540;13.416;2024-01-15T06:49:09;3.30;;;1.80;;
84042;SDS011;74129;52.540;13.416;2024-01-15T06:54:31;3.10;;;1.40;;
84042;SDS011;74129;52.540;13.416;2024-01-15T06:57:08;4.50;;;1.90;;
84042;SDS011;74129;52.540;13.416;2024-01-15T06:59:53;2.20;;;1.50;;
84042;SDS011;74129;52.540;13.416;2024-01-15T07:02:30;5.00;;;2.00;;
84042;SDS011;74129;52.540;13.416;2024-01-15T07:05:13;4.80;;;1.80;;
84042;SDS011;74129;52.540;13.416;2024-01-15T07:07:59;3.70;;;1.70;;
84042;SDS011;74129;52.540;13.416;2024-01-15T07:10:34;4.90;;;2.60;;
84042;SDS011;74129;52.540;13.416;2024-01-15T07:13:17;3.90;;;2.20;;
84042;SDS011;74129;52.540;13.416;2024-01-15T07:15:58;3.40;;;1.50;;
84042;SDS011;74129;52.540;13.416;2024-01-15T07:18:30;7.00;;;1.90;;
84042;SDS011;74129;52.540;13.416;2024-01-15T07:21:04;5.80;;;2.10;;
84042;SDS011;74129;52.540;13.416;2024-01-15T07:23:34;2.60;;;1.30;;
84042;SDS011;74129;52.540;13.416;2024-01-15T07:26:04;6.80;;;2.30;;
84042;SDS011;74129;52.540;13.416;2024-01-15T07:28:31;8.00;;;2.00;;
84042;SDS011;74129;52.540;13.416;2024-01-15T07:31:03;6.80;;;1.80;;
84042;SDS011;74129;52.540;13.416;2024-01-15T07:33:32;7.10;;;2.10;;
84042;SDS011;74129;52.540;13.416;2024-01-15T07:36:01;5.30;;;2.00;;
84042;SDS011;74129;52.540;13.416;2024-01-15T07:38:35;4.00;;;1.80;;
84042;SDS011;74129;52.540;13.416;2024-01-15T07:41:08;9.00;;;2.00;;
84042;SDS011;74129;52.540;13.416;2024-01-15T07:43:36;6.50;;;2.00;;
84042;SDS011;74129;52.540;13.416;2024-01-15T07:46:12;6.50;;;2.00;;
84042;SDS011;74129;52.540;13.416;2024-01-15T07:48:47;4.40;;;2.10;;
84042;SDS011;74129;52.540;13.416;2024-01-15T07:51:33;6.00;;;2.40;;
84042;SDS011;74129;52.540;13.416;2024-01-15T07:54:08;6.40;;;1.90;;
84042;SDS011;74129;52.540;13.416;2024-01-15T07:57:04;4.60;;;1.60;;
84042;SDS011;74129;52.540;13.416;2024-01-15T07:59:47;2.10;;;1.30;;
84042;SDS011;74129;52.540;13.416;2024-01-15T08:02:29;4.50;;;1.70;;
84042;SDS011;74129;52.540;13.416;2024-01-15T08:05:18;3.60;;;1.20;;
84042;SDS011;74129;52.540;13.416;2024-01-15T08:11:02;5.00;;;1.50;;
84042;SDS011;74129;52.540;13.416;2024-01-15T08:13:51;7.20;;;2.20;;
84042;SDS011;74129;52.540;13.416;2024-01-15T08:20:32;3.50;;;1.40;;
84042;SDS011;74129;52.540;13.416;2024-01-15T08:43:50;6.70;;;2.10;;
84042;SDS011;74129;52.540;13.416;2024-01-15T08:47:55;3.40;;;1.40;;
84042;SDS011;74129;52.540;13.416;2024-01-15T08:50:47;2.50;;;1.50;;
84042;SDS011;74129;52.540;13.416;2024-01-15T08:53:30;4.20;;;1.70;;
84042;SDS011;74129;52.540;13.416;2024-01-15T08:57:11;2.30;;;1.50;;
84042;SDS011;74129;52.540;13.416;2024-01-15T09:02:30;4.20;;;1.80;;
84042;SDS011;74129;52.540;13.416;2024-01-15T09:12:12;8.20;;;1.90;;
84042;SDS011;74129;52.540;13.416;2024-01-15T09:15:01;6.20;;;1.80;;
84042;SDS011;74129;52.540;13.416;2024-01-15T09:25:23;4.10;;;1.80;;
84042;SDS011;74129;52.540;13.416;2024-01-15T09:34:27;5.80;;;2.20;;
84042;SDS011;74129;52.540;13.416;2024-01-15T09:53:30;3.70;;;1.50;;
84042;SDS011;74129;52.540;13.416;2024-01-15T09:59:30;3.60;;;1.50;;
84042;SDS011;74129;52.540;13.416;2024-01-15T10:02:51;2.70;;;1.20;;
84042;SDS011;74129;52.540;13.416;2024-01-15T10:06:43;1.60;;;1.30;;
84042;SDS011;74129;52.540;13.416;2024-01-15T10:10:34;2.30;;;1.60;;
84042;SDS011;74129;52.540;13.416;2024-01-15T10:13:37;3.80;;;1.30;;
84042;SDS011;74129;52.540;13.416;2024-01-15T10:16:50;4.90;;;1.70;;
84042;SDS011;74129;52.540;13.416;2024-01-15T10:29:44;1.40;;;1.10;;
84042;SDS011;74129;52.540;13.416;2024-01-15T10:33:11;1.90;;;1.40;;
84042;SDS011;74129;52.540;13.416;2024-01-15T10:36:31;1.70;;;1.40;;
84042;SDS011;74129;52.540;13.416;2024-01-15T10:58:03;1.10;;;1.00;;
84042;SDS011;74129;52.540;13.416;2024-01-15T11:07:26;10.20;;;2.00;;
84042;SDS011;74129;52.540;13.416;2024-01-15T11:23:02;3.50;;;1.00;;
84042;SDS011;74129;52.540;13.416;2024-01-15T11:26:32;2.40;;;1.20;;
84042;SDS011;74129;52.540;13.416;2024-01-15T11:29:33;3.10;;;1.60;;
84042;SDS011;74129;52.540;13.416;2024-01-15T11:35:17;2.30;;;1.50;;
84042;SDS011;74129;52.540;13.416;2024-01-15T11:40:39;2.80;;;1.50;;
84042;SDS011;74129;52.540;13.416;2024-01-15T11:46:56;1.80;;;1.40;;
84042;SDS011;74129;52.540;13.416;2024-01-15T11:50:02;2.60;;;1.70;;
84042;SDS011;74129;52.540;13.416;2024-01-15T11:52:42;2.50;;;1.50;;
84042;SDS011;74129;52.540;13.416;2024-01-15T11:58:59;2.90;;;1.60;;
84042;SDS011;74129;52.540;13.416;2024-01-15T12:01:54;5.00;;;1.70;;
84042;SDS011;74129;52.540;13.416;2024-01-15T12:07:44;5.90;;;1.90;;
84042;SDS011;74129;52.540;13.416;2024-01-15T12:10:28;3.50;;;1.60;;
84042;SDS011;74129;52.540;13.416;2024-01-15T12:13:19;4.30;;;1.40;;
84042;SDS011;74129;52.540;13.416;2024-01-15T12:16:04;3.00;;;1.70;;
84042;SDS011;74129;52.540;13.416;2024-01-15T12:18:46;3.30;;;1.50;;
84042;SDS011;74129;52.540;13.416;2024-01-15T12:21:34;2.40;;;1.60;;
84042;SDS011;74129;52.540;13.416;2024-01-15T12:24:21;3.00;;;1.60;;
84042;SDS011;74129;52.540;13.416;2024-01-15T12:27:01;3.00;;;1.60;;
84042;SDS011;74129;52.540;13.416;2024-01-15T12:29:47;4.00;;;1.90;;
84042;SDS011;74129;52.540;13.416;2024-01-15T12:32:36;1.60;;;1.30;;
84042;SDS011;74129;52.540;13.416;2024-01-15T12:35:56;2.20;;;1.30;;
84042;SDS011;74129;52.540;13.416;2024-01-15T12:39:26;2.00;;;1.20;;
84042;SDS011;74129;52.540;13.416;2024-01-15T12:42:35;2.30;;;1.40;;
84042;SDS011;74129;52.540;13.416;2024-01-15T12:45:31;2.20;;;1.10;;
84042;SDS011;74129;52.540;13.416;2024-01-15T12:48:38;1.50;;;1.10;;
84042;SDS011;74129;52.540;13.416;2024-01-15T12:51:56;1.50;;;1.30;;
84042;SDS011;74129;52.540;13.416;2024-01-15T12:54:43;2.30;;;1.20;;
84042;SDS011;74129;52.540;13.416;2024-01-15T13:00:47;1.00;;;1.00;;
84042;SDS011;74129;52.540;13.416;2024-01-15T13:04:11;2.10;;;1.40;;
84042;SDS011;74129;52.540;13.416;2024-01-15T13:07:03;1.70;;;1.40;;
84042;SDS011;74129;52.540;13.416;2024-01-15T13:09:44;3.60;;;1.50;;
84042;SDS011;74129;52.540;13.416;2024-01-15T13:15:48;2.30;;;1.60;;
84042;SDS011;74129;52.540;13.416;2024-01-15T13:18:48;1.30;;;1.10;;
84042;SDS011;74129;52.540;13.416;2024-01-15T13:21:31;2.20;;;1.30;;
84042;SDS011;74129;52.540;13.416;2024-01-15T13:24:05;2.10;;;1.40;;
84042;SDS011;74129;52.540;13.416;2024-01-15T13:26:35;2.20;;;1.30;;
84042;SDS011;74129;52.540;13.416;2024-01-15T13:29:22;2.10;;;1.50;;
84042;SDS011;74129;52.540;13.416;2024-01-15T13:35:05;1.90;;;1.30;;
84042;SDS011;74129;52.540;13.416;2024-01-15T13:37:52;1.40;;;1.20;;
84042;SDS011;74129;52.540;13.416;2024-01-15T13:40:24;1.90;;;1.40;;
84042;SDS011;74129;52.540;13.416;2024-01-15T13:43:05;2.10;;;1.40;;
84042;SDS011;74129;52.540;13.416;2024-01-15T13:45:44;2.10;;;1.60;;
84042;SDS011;74129;52.540;13.416;2024-01-15T13:48:16;1.70;;;1.30;;
84042;SDS011;74129;52.540;13.416;2024-01-15T13:50:57;2.30;;;1.40;;
84042;SDS011;74129;52.540;13.416;2024-01-15T13:53:44;2.70;;;1.60;;
84042;SDS011;74129;52.540;13.416;2024-01-15T13:56:19;2.50;;;1.30;;
84042;SDS011;74129;52.540;13.416;2024-01-15T13:59:03;1.80;;;1.60;;
84042;SDS011;74129;52.540;13.416;2024-01-15T14:01:33;2.20;;;1.70;;
84042;SDS011;74129;52.540;13.416;2024-01-15T14:04:16;3.20;;;1.40;;
84042;SDS011;74129;52.540;13.416;2024-01-15T14:07:00;2.50;;;1.80;;
84042;SDS011;74129;52.540;13.416;2024-01-15T14:09:45;1.70;;;1.20;;
84042;SDS011;74129;52.540;13.416;2024-01-15T14:12:37;2.40;;;1.40;;
84042;SDS011;74129;52.540;13.416;2024-01-15T14:15:23;1.70;;;1.30;;
84042;SDS011;74129;52.540;13.416;2024-01-15T14:18:11;2.70;;;1.50;;
84042;SDS011;74129;52.540;13.416;2024-01-15T14:20:45;2.30;;;1.60;;
84042;SDS011;74129;52.540;13.416;2024-01-15T14:23:23;2.60;;;1.50;;
84042;SDS011;74129;52.540;13.416;2024-01-15T14:26:13;3.40;;;1.30;;
84042;SDS011;74129;52.540;13.416;2024-01-15T14:29:11;3.30;;;1.40;;
84042;SDS011;74129;52.540;13.416;2024-01-15T14:31:40;1.60;;;1.10;;
84042;SDS011;74129;52.540;13.416;2024-01-15T14:34:14;2.70;;;1.60;;
84042;SDS011;74129;52.540;13.416;2024-01-15T14:36:54;2.30;;;1.30;;
84042;SDS011;74129;52.540;13.416;2024-01-15T14:39:37;2.30;;;1.30;;
84042;SDS011;74129;52.540;13.416;2024-01-15T14:42:17;4.60;;;1.60;;
84042;SDS011;74129;52.540;13.416;2024-01-15T14:48:33;3.70;;;1.80;;
84042;SDS011;74129;52.540;13.416;2024-01-15T14:51:23;1.50;;;1.20;;
84042;SDS011;74129;52.540;13.416;2024-01-15T14:53:58;2.20;;;1.60;;
84042;SDS011;74129;52.540;13.416;2024-01-15T14:56:29;5.00;;;1.70;;
84042;SDS011;74129;52.540;13.416;2024-01-15T14:59:30;4.50;;;1.60;;
84042;SDS011;74129;52.540;13.416;2024-01-15T15:02:07;2.20;;;1.60;;
84042;SDS011;74129;52.540;13.416;2024-01-15T15:04:56;1.90;;;1.40;;
84042;SDS011;74129;52.540;13.416;2024-01-15T15:07:29;5.40;;;1.50;;
84042;SDS011;74129;52.540;13.416;2024-01-15T15:09:58;4.30;;;1.80;;
84042;SDS011;74129;52.540;13.416;2024-01-15T15:14:58;3.70;;;1.40;;
84042;SDS011;74129;52.540;13.416;2024-01-15T15:17:25;2.80;;;1.00;;
84042;SDS011;74129;52.540;13.416;2024-01-15T15:20:05;2.40;;;0.90;;
84042;SDS011;74129;52.540;13.416;2024-01-15T15:22:46;2.20;;;1.40;;
84042;SDS011;74129;52.540;13.416;2024-01-15T15:25:25;2.60;;;1.30;;
84042;SDS011;74129;52.540;13.416;2024-01-15T15:31:03;2.20;;;1.40;;
84042;SDS011;74129;52.540;13.416;2024-01-15T15:33:54;5.10;;;1.70;;
84042;SDS011;74129;52.540;13.416;2024-01-15T15:36:21;5.00;;;2.00;;
84042;SDS011;74129;52.540;13.416;2024-01-15T15:39:00;3.70;;;1.80;;
84042;SDS011;74129;52.540;13.416;2024-01-15T15:42:08;3.50;;;1.40;;
84042;SDS011;74129;52.540;13.416;2024-01-15T15:44:38;4.30;;;1.70;;
84042;SDS011;74129;52.540;13.416;2024-01-15T15:47:17;4.00;;;2.10;;
84042;SDS011;74129;52.540;13.416;2024-01-15T15:49:51;4.10;;;1.60;;
84042;SDS011;74129;52.540;13.416;2024-01-15T15:52:29;4.50;;;2.10;;
84042;SDS011;74129;52.540;13.416;2024-01-15T15:54:59;4.20;;;2.20;;
84042;SDS011;74129;52.540;13.416;2024-01-15T15:57:34;5.30;;;2.30;;
84042;SDS011;74129;52.540;13.416;2024-01-15T16:00:09;3.50;;;2.00;;
84042;SDS011;74129;52.540;13.416;2024-01-15T16:02:41;2.10;;;1.60;;
84042;SDS011;74129;52.540;13.416;2024-01-15T16:05:18;2.80;;;1.60;;
84042;SDS011;74129;52.540;13.416;2024-01-15T16:08:00;3.00;;;1.80;;
84042;SDS011;74129;52.540;13.416;2024-01-15T16:10:32;2.00;;;1.50;;
84042;SDS011;74129;52.540;13.416;2024-01-15T16:12:58;2.50;;;1.90;;
84042;SDS011;74129;52.540;13.416;2024-01-15T16:15:25;4.60;;;2.10;;
84042;SDS011;74129;52.540;13.416;2024-01-15T16:17:54;4.20;;;2.20;;
84042;SDS011;74129;52.540;13.416;2024-01-15T16:20:21;4.60;;;2.00;;
84042;SDS011;74129;52.540;13.416;2024-01-15T16:22:55;5.40;;;2.60;;
84042;SDS011;74129;52.540;13.416;2024-01-15T16:25:24;3.20;;;1.80;;
84042;SDS011;74129;52.540;13.416;2024-01-15T16:28:08;4.30;;;2.40;;
84042;SDS011;74129;52.540;13.416;2024-01-15T16:30:36;3.50;;;1.80;;
84042;SDS011;74129;52.540;13.416;2024-01-15T16:33:03;4.50;;;1.90;;
84042;SDS011;74129;52.540;13.416;2024-01-15T16:35:39;3.70;;;2.50;;
84042;SDS011;74129;52.540;13.416;2024-01-15T16:38:05;2.80;;;1.80;;
84042;SDS011;74129;52.540;13.416;2024-01-15T16:40:38;3.20;;;1.70;;
84042;SDS011;74129;52.540;13.416;2024-01-15T16:43:15;4.30;;;1.90;;
84042;SDS011;74129;52.540;13.416;2024-01-15T16:45:47;5.70;;;1.90;;
84042;SDS011;74129;52.540;13.416;2024-01-15T16:48:47;2.30;;;1.80;;
84042;SDS011;74129;52.540;13.416;2024-01-15T16:51:45;4.00;;;2.20;;
84042;SDS011;74129;52.540;13.416;2024-01-15T16:54:37;2.50;;;2.00;;
84042;SDS011;74129;52.540;13.416;2024-01-15T16:57:22;3.80;;;2.20;;
84042;SDS011;74129;52.540;13.416;2024-01-15T17:02:40;4.10;;;2.00;;
84042;SDS011;74129;52.540;13.416;2024-01-15T17:05:15;2.30;;;1.80;;
84042;SDS011;74129;52.540;13.416;2024-01-15T17:07:45;3.60;;;2.10;;
84042;SDS011;74129;52.540;13.416;2024-01-15T17:10:17;3.30;;;2.30;;
84042;SDS011;74129;52.540;13.416;2024-01-15T17:12:50;2.70;;;2.00;;
84042;SDS011;74129;52.540;13.416;2024-01-15T17:15:26;5.40;;;2.60;;
84042;SDS011;74129;52.540;13.416;2024-01-15T17:17:58;5.80;;;2.60;;
84042;SDS011;74129;52.540;13.416;2024-01-15T17:20:27;5.00;;;2.70;;
84042;SDS011;74129;52.540;13.416;2024-01-15T17:22:53;6.00;;;2.40;;
84042;SDS011;74129;52.540;13.416;2024-01-15T17:25:37;3.60;;;2.40;;
84042;SDS011;74129;52.540;13.416;2024-01-15T17:28:07;5.40;;;2.50;;
84042;SDS011;74129;52.540;13.416;2024-01-15T17:30:39;2.90;;;2.10;;
84042;SDS011;74129;52.540;13.416;2024-01-15T17:33:06;6.20;;;2.70;;
84042;SDS011;74129;52.540;13.416;2024-01-15T17:35:32;5.60;;;3.20;;
84042;SDS011;74129;52.540;13.416;2024-01-15T17:38:28;4.30;;;2.40;;
84042;SDS011;74129;52.540;13.416;2024-01-15T17:40:59;6.90;;;3.30;;
84042;SDS011;74129;52.540;13.416;2024-01-15T17:43:29;4.60;;;2.60;;
84042;SDS011;74129;52.540;13.416;2024-01-15T17:46:08;4.70;;;3.00;;
84042;SDS011;74129;52.540;13.416;2024-01-15T17:48:59;4.70;;;2.90;;
84042;SDS011;74129;52.540;13.416;2024-01-15T17:52:02;5.70;;;3.70;;
84042;SDS011;74129;52.540;13.416;2024-01-15T17:57:55;4.60;;;3.00;;
84042;SDS011;74129;52.540;13.416;2024-01-15T18:00:22;6.00;;;2.60;;
84042;SDS011;74129;52.540;13.416;2024-01-15T18:03:04;4.70;;;2.60;;
84042;SDS011;74129;52.540;13.416;2024-01-15T18:08:43;4.40;;;2.50;;
84042;SDS011;74129;52.540;13.416;2024-01-15T18:11:24;7.20;;;2.70;;
84042;SDS011;74129;52.540;13.416;2024-01-15T18:14:35;8.50;;;3.40;;
84042;SDS011;74129;52.540;13.416;2024-01-15T18:17:14;5.80;;;2.90;;
84042;SDS011;74129;52.540;13.416;2024-01-15T18:19:45;5.60;;;3.00;;
84042;SDS011;74129;52.540;13.416;2024-01-15T18:22:35;4.20;;;2.30;;
84042;SDS011;74129;52.540;13.416;2024-01-15T18:25:30;2.20;;;1.90;;
84042;SDS011;74129;52.540;13.416;2024-01-15T18:28:05;4.40;;;2.30;;
84042;SDS011;74129;52.540;13.416;2024-01-15T18:30:32;3.60;;;2.30;;